sensor_id;sensor_type;location;lat;lon;timestamp;P1;durP1;ratioP1;P2;durP2;ratioP2
19679;SDS011;9989;48.962;9.182;2023-02-15T00:01:32;41.33;;;22.50;;
19679;SDS011;9989;48.962;9.182;2023-02-15T00:03:59;41.20;;;22.53;;
19679;SDS011;9989;48.962;9.182;2023-02-15T00:06:24;43.63;;;22.53;;
19679;SDS011;9989;48.962;9.182;2023-02-15T00:08:50;40.93;;;21.37;;
19679;SDS011;9989;48.962;9.182;2023-02-15T00:11:17;39.47;;;21.80;;
19679;SDS011;9989;48.962;9.182;2023-02-15T00:14:07;47.70;;;23.33;;
19679;SDS011;9989;48.962;9.182;2023-02-15T00:16:33;40.80;;;21.57;;
19679;SDS011;9989;48.962;9.182;2023-02-15T00:18:59;46.70;;;24.50;;
19679;SDS011;9989;48.962;9.182;2023-02-15T00:21:27;48.47;;;24.23;;
19679;SDS011;9989;48.962;9.182;2023-02-15T00:23:56;42.77;;;20.57;;
19679;SDS011;9989;48.962;9.182;2023-02-15T00:26:23;43.83;;;22.07;;
19679;SDS011;9989;48.962;9.182;2023-02-15T00:28:49;45.37;;;22.93;;
19679;SDS011;9989;48.962;9.182;2023-02-15T00:31:15;46.73;;;22.13;;
19679;SDS011;9989;48.962;9.182;2023-02-15T00:33:40;38.87;;;20.97;;
19679;SDS011;9989;48.962;9.182;2023-02-15T00:36:06;41.97;;;21.90;;
19679;SDS011;9989;48.962;9.182;2023-02-15T00:38:34;43.53;;;21.90;;
19679;SDS011;9989;48.962;9.182;2023-02-15T00:41:00;38.00;;;19.87;;
19679;SDS011;9989;48.962;9.182;2023-02-15T00:43:28;37.10;;;20.13;;
19679;SDS011;9989;48.962;9.182;2023-02-15T00:45:55;37.47;;;19.13;;
19679;SDS011;9989;48.962;9.182;2023-02-15T00:48:21;32.83;;;18.03;;
19679;SDS011;9989;48.962;9.182;2023-02-15T00:50:51;35.60;;;18.13;;
19679;SDS011;9989;48.962;9.182;2023-02-15T00:53:18;35.47;;;20.17;;
19679;SDS011;9989;48.962;9.182;2023-02-15T00:55:44;33.23;;;17.50;;
19679;SDS011;9989;48.962;9.182;2023-02-15T00:58:10;35.47;;;18.20;;
19679;SDS011;9989;48.962;9.182;2023-02-15T01:00:37;36.47;;;19.03;;
19679;SDS011;9989;48.962;9.182;2023-02-15T01:03:03;30.33;;;16.43;;
19679;SDS011;9989;48.962;9.182;2023-02-15T01:05:29;32.33;;;17.97;;
19679;SDS011;9989;48.962;9.182;2023-02-15T01:07:56;29.60;;;16.20;;
19679;SDS011;9989;48.962;9.182;2023-02-15T01:10:22;30.60;;;16.83;;
19679;SDS011;9989;48.962;9.182;2023-02-15T01:12:48;25.80;;;14.90;;
19679;SDS011;9989;48.962;9.182;2023-02-15T01:15:15;23.33;;;13.33;;
19679;SDS011;9989;48.962;9.182;2023-02-15T01:17:40;23.97;;;13.93;;
19679;SDS011;9989;48.962;9.182;2023-02-15T01:20:07;23.17;;;13.20;;
19679;SDS011;9989;48.962;9.182;2023-02-15T01:22:33;22.80;;;12.73;;
19679;SDS011;9989;48.962;9.182;2023-02-15T01:24:58;23.07;;;13.80;;
19679;SDS011;9989;48.962;9.182;2023-02-15T01:27:24;20.10;;;11.57;;
19679;SDS011;9989;48.962;9.182;2023-02-15T01:29:49;20.83;;;11.80;;
19679;SDS011;9989;48.962;9.182;2023-02-15T01:32:15;21.37;;;11.90;;
19679;SDS011;9989;48.962;9.182;2023-02-15T01:34:40;23.10;;;13.17;;
19679;SDS011;9989;48.962;9.182;2023-02-15T01:37:06;22.53;;;12.50;;
19679;SDS011;9989;48.962;9.182;2023-02-15T01:39:31;21.43;;;12.77;;
19679;SDS011;9989;48.962;9.182;2023-02-15T01:41:57;22.77;;;11.97;;
19679;SDS011;9989;48.962;9.182;2023-02-15T01:47:20;22.03;;;11.77;;
19679;SDS011;9989;48.962;9.182;2023-02-15T01:49:52;20.93;;;11.37;;
19679;SDS011;9989;48.962;9.182;2023-02-15T01:52:24;22.00;;;12.43;;
19679;SDS011;9989;48.962;9.182;2023-02-15T01:54:50;20.00;;;11.70;;
19679;SDS011;9989;48.962;9.182;2023-02-15T01:57:17;24.77;;;13.17;;
19679;SDS011;9989;48.962;9.182;2023-02-15T01:59:48;24.43;;;13.50;;
19679;SDS011;9989;48.962;9.182;2023-02-15T02:02:16;24.70;;;14.20;;
19679;SDS011;9989;48.962;9.182;2023-02-15T02:04:49;24.83;;;14.07;;
19679;SDS011;9989;48.962;9.182;2023-02-15T02:07:17;23.60;;;13.30;;
19679;SDS011;9989;48.962;9.182;2023-02-15T02:09:45;21.23;;;12.60;;
19679;SDS011;9989;48.962;9.182;2023-02-15T02:12:11;21.20;;;12.17;;
19679;SDS011;9989;48.962;9.182;2023-02-15T02:14:37;20.93;;;12.03;;
19679;SDS011;9989;48.962;9.182;2023-02-15T02:17:11;23.30;;;13.63;;
19679;SDS011;9989;48.962;9.182;2023-02-15T02:19:53;21.47;;;12.63;;
19679;SDS011;9989;48.962;9.182;2023-02-15T02:30:49;19.93;;;11.50;;
19679;SDS011;9989;48.962;9.182;2023-02-15T02:44:13;19.00;;;11.20;;
19679;SDS011;9989;48.962;9.182;2023-02-15T02:49:12;19.70;;;11.07;;
19679;SDS011;9989;48.962;9.182;2023-02-15T02:51:38;19.40;;;11.40;;
19679;SDS011;9989;48.962;9.182;2023-02-15T02:54:04;18.80;;;12.10;;
19679;SDS011;9989;48.962;9.182;2023-02-15T02:56:39;19.77;;;11.23;;
19679;SDS011;9989;48.962;9.182;2023-02-15T02:59:12;17.27;;;10.30;;
19679;SDS011;9989;48.962;9.182;2023-02-15T03:01:45;20.00;;;11.63;;
19679;SDS011;9989;48.962;9.182;2023-02-15T03:04:21;20.33;;;11.93;;
19679;SDS011;9989;48.962;9.182;2023-02-15T03:06:54;19.90;;;12.10;;
19679;SDS011;9989;48.962;9.182;2023-02-15T03:09:29;20.10;;;11.60;;
19679;SDS011;9989;48.962;9.182;2023-02-15T03:12:16;20.03;;;11.20;;
19679;SDS011;9989;48.962;9.182;2023-02-15T03:14:44;19.10;;;11.00;;
19679;SDS011;9989;48.962;9.182;2023-02-15T03:17:13;18.93;;;10.83;;
19679;SDS011;9989;48.962;9.182;2023-02-15T03:19:40;18.37;;;10.20;;
19679;SDS011;9989;48.962;9.182;2023-02-15T03:27:17;19.30;;;11.07;;
19679;SDS011;9989;48.962;9.182;2023-02-15T03:29:50;20.47;;;10.53;;
19679;SDS011;9989;48.962;9.182;2023-02-15T03:32:20;20.90;;;10.73;;
19679;SDS011;9989;48.962;9.182;2023-02-15T03:34:46;18.20;;;10.93;;
19679;SDS011;9989;48.962;9.182;2023-02-15T03:37:21;18.67;;;10.83;;
19679;SDS011;9989;48.962;9.182;2023-02-15T03:40:03;18.50;;;10.53;;
19679;SDS011;9989;48.962;9.182;2023-02-15T03:48:55;18.93;;;10.70;;
19679;SDS011;9989;48.962;9.182;2023-02-15T03:51:26;19.97;;;11.60;;
19679;SDS011;9989;48.962;9.182;2023-02-15T03:54:09;20.93;;;12.53;;
19679;SDS011;9989;48.962;9.182;2023-02-15T03:56:39;20.73;;;11.33;;
19679;SDS011;9989;48.962;9.182;2023-02-15T03:59:07;19.07;;;10.90;;
19679;SDS011;9989;48.962;9.182;2023-02-15T04:01:57;18.23;;;11.53;;
19679;SDS011;9989;48.962;9.182;2023-02-15T04:04:38;20.30;;;10.87;;
19679;SDS011;9989;48.962;9.182;2023-02-15T04:07:08;18.53;;;10.97;;
19679;SDS011;9989;48.962;9.182;2023-02-15T04:09:34;20.87;;;11.20;;
19679;SDS011;9989;48.962;9.182;2023-02-15T04:12:19;20.80;;;11.87;;
19679;SDS011;9989;48.962;9.182;2023-02-15T04:14:44;19.33;;;11.57;;
19679;SDS011;9989;48.962;9.182;2023-02-15T04:17:29;19.33;;;11.17;;
19679;SDS011;9989;48.962;9.182;2023-02-15T04:19:54;20.07;;;11.37;;
19679;SDS011;9989;48.962;9.182;2023-02-15T04:22:39;17.60;;;10.73;;
19679;SDS011;9989;48.962;9.182;2023-02-15T04:25:23;17.83;;;10.77;;
19679;SDS011;9989;48.962;9.182;2023-02-15T04:27:49;22.13;;;10.90;;
19679;SDS011;9989;48.962;9.182;2023-02-15T04:30:17;19.43;;;10.27;;
19679;SDS011;9989;48.962;9.182;2023-02-15T04:32:46;19.77;;;11.23;;
19679;SDS011;9989;48.962;9.182;2023-02-15T04:35:12;19.80;;;12.00;;
19679;SDS011;9989;48.962;9.182;2023-02-15T04:37:39;19.60;;;11.37;;
19679;SDS011;9989;48.962;9.182;2023-02-15T04:40:05;22.07;;;11.77;;
19679;SDS011;9989;48.962;9.182;2023-02-15T04:42:31;21.87;;;12.50;;
19679;SDS011;9989;48.962;9.182;2023-02-15T04:44:57;21.27;;;12.40;;
19679;SDS011;9989;48.962;9.182;2023-02-15T04:47:23;23.90;;;13.17;;
19679;SDS011;9989;48.962;9.182;2023-02-15T04:49:48;20.87;;;12.03;;
19679;SDS011;9989;48.962;9.182;2023-02-15T04:52:14;23.80;;;13.17;;
19679;SDS011;9989;48.962;9.182;2023-02-15T04:54:40;21.73;;;12.63;;
19679;SDS011;9989;48.962;9.182;2023-02-15T04:57:06;24.20;;;12.70;;
19679;SDS011;9989;48.962;9.182;2023-02-15T04:59:31;23.70;;;12.97;;
19679;SDS011;9989;48.962;9.182;2023-02-15T05:01:57;21.97;;;11.70;;
19679;SDS011;9989;48.962;9.182;2023-02-15T05:04:22;21.70;;;12.80;;
19679;SDS011;9989;48.962;9.182;2023-02-15T05:06:48;19.70;;;10.53;;
19679;SDS011;9989;48.962;9.182;2023-02-15T05:09:14;21.97;;;12.23;;
19679;SDS011;9989;48.962;9.182;2023-02-15T05:11:40;22.10;;;12.63;;
19679;SDS011;9989;48.962;9.182;2023-02-15T05:14:06;20.80;;;12.07;;
19679;SDS011;9989;48.962;9.182;2023-02-15T05:16:31;21.73;;;13.03;;
19679;SDS011;9989;48.962;9.182;2023-02-15T05:18:57;23.10;;;12.80;;
19679;SDS011;9989;48.962;9.182;2023-02-15T05:21:23;20.33;;;11.90;;
19679;SDS011;9989;48.962;9.182;2023-02-15T05:23:48;20.83;;;12.33;;
19679;SDS011;9989;48.962;9.182;2023-02-15T05:26:18;19.63;;;11.77;;
19679;SDS011;9989;48.962;9.182;2023-02-15T05:29:04;19.40;;;10.83;;
19679;SDS011;9989;48.962;9.182;2023-02-15T05:31:30;19.93;;;12.00;;
19679;SDS011;9989;48.962;9.182;2023-02-15T05:33:56;22.30;;;13.27;;
19679;SDS011;9989;48.962;9.182;2023-02-15T05:36:22;22.30;;;12.53;;
19679;SDS011;9989;48.962;9.182;2023-02-15T05:38:48;21.67;;;12.73;;
19679;SDS011;9989;48.962;9.182;2023-02-15T05:41:13;25.87;;;13.33;;
19679;SDS011;9989;48.962;9.182;2023-02-15T05:43:39;27.57;;;13.63;;
19679;SDS011;9989;48.962;9.182;2023-02-15T05:46:06;24.60;;;13.50;;
19679;SDS011;9989;48.962;9.182;2023-02-15T05:48:32;25.77;;;13.07;;
19679;SDS011;9989;48.962;9.182;2023-02-15T05:51:04;23.77;;;12.87;;
19679;SDS011;9989;48.962;9.182;2023-02-15T05:53:32;23.30;;;13.03;;
19679;SDS011;9989;48.962;9.182;2023-02-15T05:56:00;23.97;;;13.57;;
19679;SDS011;9989;48.962;9.182;2023-02-15T05:58:36;29.63;;;14.03;;
19679;SDS011;9989;48.962;9.182;2023-02-15T06:01:13;22.73;;;12.73;;
19679;SDS011;9989;48.962;9.182;2023-02-15T06:03:43;26.13;;;13.37;;
19679;SDS011;9989;48.962;9.182;2023-02-15T06:06:10;24.17;;;13.17;;
19679;SDS011;9989;48.962;9.182;2023-02-15T06:08:36;24.33;;;14.00;;
19679;SDS011;9989;48.962;9.182;2023-02-15T06:11:02;29.40;;;14.27;;
19679;SDS011;9989;48.962;9.182;2023-02-15T06:13:29;25.67;;;13.97;;
19679;SDS011;9989;48.962;9.182;2023-02-15T06:15:55;23.27;;;12.90;;
19679;SDS011;9989;48.962;9.182;2023-02-15T06:18:20;29.77;;;17.20;;
19679;SDS011;9989;48.962;9.182;2023-02-15T06:20:46;33.73;;;21.40;;
19679;SDS011;9989;48.962;9.182;2023-02-15T06:23:12;29.30;;;18.00;;
19679;SDS011;9989;48.962;9.182;2023-02-15T06:25:38;29.77;;;17.47;;
19679;SDS011;9989;48.962;9.182;2023-02-15T06:28:04;31.00;;;16.33;;
19679;SDS011;9989;48.962;9.182;2023-02-15T06:30:29;24.63;;;13.07;;
19679;SDS011;9989;48.962;9.182;2023-02-15T06:32:56;23.60;;;12.60;;
19679;SDS011;9989;48.962;9.182;2023-02-15T06:35:21;26.20;;;14.30;;
19679;SDS011;9989;48.962;9.182;2023-02-15T06:37:47;23.83;;;13.47;;
19679;SDS011;9989;48.962;9.182;2023-02-15T06:40:13;25.13;;;13.33;;
19679;SDS011;9989;48.962;9.182;2023-02-15T06:42:39;24.77;;;13.43;;
19679;SDS011;9989;48.962;9.182;2023-02-15T06:45:06;29.03;;;14.53;;
19679;SDS011;9989;48.962;9.182;2023-02-15T06:47:32;26.43;;;15.13;;
19679;SDS011;9989;48.962;9.182;2023-02-15T06:49:57;27.50;;;14.70;;
19679;SDS011;9989;48.962;9.182;2023-02-15T06:52:23;27.43;;;14.53;;
19679;SDS011;9989;48.962;9.182;2023-02-15T06:54:48;26.80;;;13.87;;
19679;SDS011;9989;48.962;9.182;2023-02-15T06:57:14;30.03;;;15.27;;
19679;SDS011;9989;48.962;9.182;2023-02-15T06:59:40;25.27;;;13.30;;
19679;SDS011;9989;48.962;9.182;2023-02-15T07:02:05;23.70;;;13.00;;
19679;SDS011;9989;48.962;9.182;2023-02-15T07:04:31;27.20;;;13.93;;
19679;SDS011;9989;48.962;9.182;2023-02-15T07:06:56;24.40;;;12.70;;
19679;SDS011;9989;48.962;9.182;2023-02-15T07:09:22;19.73;;;11.47;;
19679;SDS011;9989;48.962;9.182;2023-02-15T07:11:48;22.90;;;12.77;;
19679;SDS011;9989;48.962;9.182;2023-02-15T07:14:32;25.10;;;13.63;;
19679;SDS011;9989;48.962;9.182;2023-02-15T07:16:58;23.90;;;12.70;;
19679;SDS011;9989;48.962;9.182;2023-02-15T07:19:23;27.53;;;15.17;;
19679;SDS011;9989;48.962;9.182;2023-02-15T07:21:49;24.77;;;13.30;;
19679;SDS011;9989;48.962;9.182;2023-02-15T07:24:14;24.53;;;13.87;;
19679;SDS011;9989;48.962;9.182;2023-02-15T07:26:40;22.70;;;12.97;;
19679;SDS011;9989;48.962;9.182;2023-02-15T07:29:06;24.30;;;13.43;;
19679;SDS011;9989;48.962;9.182;2023-02-15T07:31:31;27.70;;;14.53;;
19679;SDS011;9989;48.962;9.182;2023-02-15T07:33:57;29.93;;;15.10;;
19679;SDS011;9989;48.962;9.182;2023-02-15T07:36:22;26.70;;;14.33;;
19679;SDS011;9989;48.962;9.182;2023-02-15T07:38:48;29.10;;;14.50;;
19679;SDS011;9989;48.962;9.182;2023-02-15T07:41:14;28.13;;;15.53;;
19679;SDS011;9989;48.962;9.182;2023-02-15T07:43:41;29.83;;;14.90;;
19679;SDS011;9989;48.962;9.182;2023-02-15T07:46:09;27.20;;;14.93;;
19679;SDS011;9989;48.962;9.182;2023-02-15T07:48:37;28.83;;;14.93;;
19679;SDS011;9989;48.962;9.182;2023-02-15T07:51:04;25.97;;;13.83;;
19679;SDS011;9989;48.962;9.182;2023-02-15T07:53:32;30.13;;;15.23;;
19679;SDS011;9989;48.962;9.182;2023-02-15T07:56:01;29.33;;;15.33;;
19679;SDS011;9989;48.962;9.182;2023-02-15T07:58:29;30.03;;;16.17;;
19679;SDS011;9989;48.962;9.182;2023-02-15T08:01:14;27.57;;;15.57;;
19679;SDS011;9989;48.962;9.182;2023-02-15T08:03:40;25.67;;;15.23;;
19679;SDS011;9989;48.962;9.182;2023-02-15T08:06:05;28.57;;;14.73;;
19679;SDS011;9989;48.962;9.182;2023-02-15T08:08:33;29.00;;;15.53;;
19679;SDS011;9989;48.962;9.182;2023-02-15T08:11:06;31.30;;;16.20;;
19679;SDS011;9989;48.962;9.182;2023-02-15T08:21:41;31.87;;;15.63;;
19679;SDS011;9989;48.962;9.182;2023-02-15T08:24:09;32.13;;;17.07;;
19679;SDS011;9989;48.962;9.182;2023-02-15T08:26:36;28.47;;;15.47;;
19679;SDS011;9989;48.962;9.182;2023-02-15T08:29:04;30.27;;;15.33;;
19679;SDS011;9989;48.962;9.182;2023-02-15T08:31:30;28.77;;;15.10;;
19679;SDS011;9989;48.962;9.182;2023-02-15T08:33:56;26.97;;;15.40;;
19679;SDS011;9989;48.962;9.182;2023-02-15T08:36:23;28.13;;;15.23;;
19679;SDS011;9989;48.962;9.182;2023-02-15T08:38:51;31.57;;;17.27;;
19679;SDS011;9989;48.962;9.182;2023-02-15T08:41:18;31.20;;;16.97;;
19679;SDS011;9989;48.962;9.182;2023-02-15T08:43:48;30.37;;;16.03;;
19679;SDS011;9989;48.962;9.182;2023-02-15T08:46:17;32.40;;;17.23;;
19679;SDS011;9989;48.962;9.182;2023-02-15T08:48:43;29.13;;;15.63;;
19679;SDS011;9989;48.962;9.182;2023-02-15T08:51:13;31.37;;;16.00;;
19679;SDS011;9989;48.962;9.182;2023-02-15T08:53:41;30.17;;;17.40;;
19679;SDS011;9989;48.962;9.182;2023-02-15T08:56:09;31.03;;;16.93;;
19679;SDS011;9989;48.962;9.182;2023-02-15T08:58:35;29.87;;;16.40;;
19679;SDS011;9989;48.962;9.182;2023-02-15T09:01:01;41.17;;;19.47;;
19679;SDS011;9989;48.962;9.182;2023-02-15T09:03:36;36.37;;;18.67;;
19679;SDS011;9989;48.962;9.182;2023-02-15T09:06:02;37.57;;;20.53;;
19679;SDS011;9989;48.962;9.182;2023-02-15T09:08:28;40.20;;;19.40;;
19679;SDS011;9989;48.962;9.182;2023-02-15T09:11:03;41.23;;;20.87;;
19679;SDS011;9989;48.962;9.182;2023-02-15T09:13:30;37.03;;;20.37;;
19679;SDS011;9989;48.962;9.182;2023-02-15T09:16:02;35.33;;;19.30;;
19679;SDS011;9989;48.962;9.182;2023-02-15T09:18:34;34.73;;;18.57;;
19679;SDS011;9989;48.962;9.182;2023-02-15T09:21:06;32.47;;;18.53;;
19679;SDS011;9989;48.962;9.182;2023-02-15T09:23:33;33.73;;;17.03;;
19679;SDS011;9989;48.962;9.182;2023-02-15T09:26:03;33.40;;;17.07;;
19679;SDS011;9989;48.962;9.182;2023-02-15T09:28:30;37.23;;;17.87;;
19679;SDS011;9989;48.962;9.182;2023-02-15T09:31:03;29.70;;;16.17;;
19679;SDS011;9989;48.962;9.182;2023-02-15T09:33:30;32.67;;;17.23;;
19679;SDS011;9989;48.962;9.182;2023-02-15T09:35:58;42.57;;;19.50;;
19679;SDS011;9989;48.962;9.182;2023-02-15T09:38:24;32.20;;;17.80;;
19679;SDS011;9989;48.962;9.182;2023-02-15T09:40:52;31.50;;;17.60;;
19679;SDS011;9989;48.962;9.182;2023-02-15T09:46:22;36.00;;;18.50;;
19679;SDS011;9989;48.962;9.182;2023-02-15T09:49:04;34.47;;;18.70;;
19679;SDS011;9989;48.962;9.182;2023-02-15T09:52:11;43.57;;;20.03;;
19679;SDS011;9989;48.962;9.182;2023-02-15T10:17:24;35.30;;;19.37;;
19679;SDS011;9989;48.962;9.182;2023-02-15T10:22:58;33.33;;;18.30;;
19679;SDS011;9989;48.962;9.182;2023-02-15T10:25:46;33.33;;;18.60;;
19679;SDS011;9989;48.962;9.182;2023-02-15T10:28:26;34.37;;;20.10;;
19679;SDS011;9989;48.962;9.182;2023-02-15T10:31:24;35.70;;;19.63;;
19679;SDS011;9989;48.962;9.182;2023-02-15T10:34:00;36.50;;;19.60;;
19679;SDS011;9989;48.962;9.182;2023-02-15T10:51:03;32.97;;;18.53;;
19679;SDS011;9989;48.962;9.182;2023-02-15T10:53:39;36.47;;;19.60;;
19679;SDS011;9989;48.962;9.182;2023-02-15T10:56:30;32.40;;;18.60;;
19679;SDS011;9989;48.962;9.182;2023-02-15T11:04:12;30.73;;;18.57;;
19679;SDS011;9989;48.962;9.182;2023-02-15T11:07:10;33.00;;;17.30;;
19679;SDS011;9989;48.962;9.182;2023-02-15T11:10:00;27.03;;;16.17;;
19679;SDS011;9989;48.962;9.182;2023-02-15T11:12:49;28.23;;;17.17;;
19679;SDS011;9989;48.962;9.182;2023-02-15T11:15:32;29.17;;;16.23;;
19679;SDS011;9989;48.962;9.182;2023-02-15T11:18:03;22.73;;;14.00;;
19679;SDS011;9989;48.962;9.182;2023-02-15T11:20:35;26.13;;;15.00;;
19679;SDS011;9989;48.962;9.182;2023-02-15T11:23:16;22.77;;;14.47;;
19679;SDS011;9989;48.962;9.182;2023-02-15T11:25:44;21.67;;;14.40;;
19679;SDS011;9989;48.962;9.182;2023-02-15T11:28:22;23.30;;;15.23;;
19679;SDS011;9989;48.962;9.182;2023-02-15T11:30:55;20.87;;;13.00;;
19679;SDS011;9989;48.962;9.182;2023-02-15T11:33:25;22.43;;;15.07;;
19679;SDS011;9989;48.962;9.182;2023-02-15T11:36:05;20.93;;;14.20;;
19679;SDS011;9989;48.962;9.182;2023-02-15T11:38:36;20.20;;;14.53;;
19679;SDS011;9989;48.962;9.182;2023-02-15T11:41:11;17.83;;;12.77;;
19679;SDS011;9989;48.962;9.182;2023-02-15T11:43:49;21.17;;;14.93;;
19679;SDS011;9989;48.962;9.182;2023-02-15T11:46:18;20.90;;;14.63;;
19679;SDS011;9989;48.962;9.182;2023-02-15T11:48:45;21.57;;;15.50;;
19679;SDS011;9989;48.962;9.182;2023-02-15T11:51:12;21.27;;;15.40;;
19679;SDS011;9989;48.962;9.182;2023-02-15T11:53:41;23.27;;;16.27;;
19679;SDS011;9989;48.962;9.182;2023-02-15T11:56:18;20.80;;;14.37;;
19679;SDS011;9989;48.962;9.182;2023-02-15T11:58:50;23.60;;;14.43;;
19679;SDS011;9989;48.962;9.182;2023-02-15T12:01:36;24.77;;;16.93;;
19679;SDS011;9989;48.962;9.182;2023-02-15T12:09:45;22.20;;;14.20;;
19679;SDS011;9989;48.962;9.182;2023-02-15T12:12:25;22.37;;;14.50;;
19679;SDS011;9989;48.962;9.182;2023-02-15T12:14:57;19.67;;;13.53;;
19679;SDS011;9989;48.962;9.182;2023-02-15T12:17:32;20.33;;;14.30;;
19679;SDS011;9989;48.962;9.182;2023-02-15T12:22:46;23.20;;;15.20;;
19679;SDS011;9989;48.962;9.182;2023-02-15T12:25:23;22.20;;;16.33;;
19679;SDS011;9989;48.962;9.182;2023-02-15T12:27:54;19.80;;;14.40;;
19679;SDS011;9989;48.962;9.182;2023-02-15T12:32:52;20.33;;;15.13;;
19679;SDS011;9989;48.962;9.182;2023-02-15T12:37:56;18.63;;;14.07;;
19679;SDS011;9989;48.962;9.182;2023-02-15T12:40:36;18.13;;;13.00;;
19679;SDS011;9989;48.962;9.182;2023-02-15T12:43:03;20.23;;;14.33;;
19679;SDS011;9989;48.962;9.182;2023-02-15T12:45:34;20.23;;;14.10;;
19679;SDS011;9989;48.962;9.182;2023-02-15T12:48:09;19.83;;;14.30;;
19679;SDS011;9989;48.962;9.182;2023-02-15T12:50:42;20.40;;;15.13;;
19679;SDS011;9989;48.962;9.182;2023-02-15T12:55:51;20.60;;;14.30;;
19679;SDS011;9989;48.962;9.182;2023-02-15T12:58:21;18.87;;;13.50;;
19679;SDS011;9989;48.962;9.182;2023-02-15T13:03:34;22.53;;;17.43;;
19679;SDS011;9989;48.962;9.182;2023-02-15T13:06:02;18.37;;;14.47;;
19679;SDS011;9989;48.962;9.182;2023-02-15T13:08:33;20.27;;;14.87;;
19679;SDS011;9989;48.962;9.182;2023-02-15T13:11:09;17.90;;;13.73;;
19679;SDS011;9989;48.962;9.182;2023-02-15T13:14:37;19.97;;;14.73;;
19679;SDS011;9989;48.962;9.182;2023-02-15T13:16:46;18.53;;;14.17;;
19679;SDS011;9989;48.962;9.182;2023-02-15T13:19:49;18.30;;;13.73;;
19679;SDS011;9989;48.962;9.182;2023-02-15T13:22:21;20.67;;;15.70;;
19679;SDS011;9989;48.962;9.182;2023-02-15T13:24:53;20.23;;;14.30;;
19679;SDS011;9989;48.962;9.182;2023-02-15T13:27:32;16.60;;;13.33;;
19679;SDS011;9989;48.962;9.182;2023-02-15T13:30:02;18.93;;;14.03;;
19679;SDS011;9989;48.962;9.182;2023-02-15T13:32:38;18.47;;;13.00;;
19679;SDS011;9989;48.962;9.182;2023-02-15T13:35:09;16.87;;;13.47;;
19679;SDS011;9989;48.962;9.182;2023-02-15T13:43:17;18.23;;;14.33;;
19679;SDS011;9989;48.962;9.182;2023-02-15T13:54:00;15.67;;;11.17;;
19679;SDS011;9989;48.962;9.182;2023-02-15T13:56:44;16.00;;;12.27;;
19679;SDS011;9989;48.962;9.182;2023-02-15T14:02:30;17.47;;;12.53;;
19679;SDS011;9989;48.962;9.182;2023-02-15T14:08:02;20.03;;;14.63;;
19679;SDS011;9989;48.962;9.182;2023-02-15T14:11:04;16.53;;;12.10;;
19679;SDS011;9989;48.962;9.182;2023-02-15T14:16:48;16.47;;;11.67;;
19679;SDS011;9989;48.962;9.182;2023-02-15T14:19:34;20.27;;;14.60;;
19679;SDS011;9989;48.962;9.182;2023-02-15T14:25:25;15.00;;;10.73;;
19679;SDS011;9989;48.962;9.182;2023-02-15T14:27:59;15.30;;;10.90;;
19679;SDS011;9989;48.962;9.182;2023-02-15T14:30:30;16.07;;;11.43;;
19679;SDS011;9989;48.962;9.182;2023-02-15T14:33:07;18.70;;;12.77;;
19679;SDS011;9989;48.962;9.182;2023-02-15T14:35:32;18.95;;;13.35;;
19679;SDS011;9989;48.962;9.182;2023-02-15T14:40:54;18.53;;;13.63;;
19679;SDS011;9989;48.962;9.182;2023-02-15T14:59:46;18.60;;;13.07;;
19679;SDS011;9989;48.962;9.182;2023-02-15T15:07:52;21.13;;;14.57;;
19679;SDS011;9989;48.962;9.182;2023-02-15T15:12:52;20.93;;;14.90;;
19679;SDS011;9989;48.962;9.182;2023-02-15T15:25:45;22.07;;;14.67;;
19679;SDS011;9989;48.962;9.182;2023-02-15T15:30:59;22.67;;;15.07;;
19679;SDS011;9989;48.962;9.182;2023-02-15T15:39:28;21.43;;;14.27;;
19679;SDS011;9989;48.962;9.182;2023-02-15T15:48:50;29.63;;;20.90;;
19679;SDS011;9989;48.962;9.182;2023-02-15T15:53:39;23.47;;;17.27;;
19679;SDS011;9989;48.962;9.182;2023-02-15T15:56:12;23.27;;;16.77;;
19679;SDS011;9989;48.962;9.182;2023-02-15T15:58:47;21.73;;;16.50;;
19679;SDS011;9989;48.962;9.182;2023-02-15T16:01:24;22.50;;;15.87;;
19679;SDS011;9989;48.962;9.182;2023-02-15T16:03:52;22.80;;;16.23;;
19679;SDS011;9989;48.962;9.182;2023-02-15T16:06:35;24.20;;;17.20;;
19679;SDS011;9989;48.962;9.182;2023-02-15T16:11:42;22.37;;;15.87;;
19679;SDS011;9989;48.962;9.182;2023-02-15T16:14:41;27.20;;;17.47;;
19679;SDS011;9989;48.962;9.182;2023-02-15T16:17:02;24.20;;;17.00;;
19679;SDS011;9989;48.962;9.182;2023-02-15T16:19:32;26.10;;;17.33;;
19679;SDS011;9989;48.962;9.182;2023-02-15T16:22:01;29.17;;;19.83;;
19679;SDS011;9989;48.962;9.182;2023-02-15T16:27:29;28.80;;;17.73;;
19679;SDS011;9989;48.962;9.182;2023-02-15T16:32:56;31.57;;;21.23;;
19679;SDS011;9989;48.962;9.182;2023-02-15T16:35:33;31.37;;;20.13;;
19679;SDS011;9989;48.962;9.182;2023-02-15T16:38:00;34.27;;;20.23;;
19679;SDS011;9989;48.962;9.182;2023-02-15T16:40:46;30.97;;;19.37;;
19679;SDS011;9989;48.962;9.182;2023-02-15T16:43:20;30.13;;;20.30;;
19679;SDS011;9989;48.962;9.182;2023-02-15T16:45:51;31.83;;;20.23;;
19679;SDS011;9989;48.962;9.182;2023-02-15T16:48:24;35.03;;;21.50;;
19679;SDS011;9989;48.962;9.182;2023-02-15T16:50:53;36.10;;;22.92;;
19679;SDS011;9989;48.962;9.182;2023-02-15T16:53:24;36.13;;;21.67;;
19679;SDS011;9989;48.962;9.182;2023-02-15T16:55:55;40.13;;;22.93;;
19679;SDS011;9989;48.962;9.182;2023-02-15T16:58:37;40.13;;;24.00;;
19679;SDS011;9989;48.962;9.182;2023-02-15T17:01:08;40.47;;;24.13;;
19679;SDS011;9989;48.962;9.182;2023-02-15T17:03:36;41.27;;;24.57;;
19679;SDS011;9989;48.962;9.182;2023-02-15T17:06:02;37.83;;;23.10;;
19679;SDS011;9989;48.962;9.182;2023-02-15T17:08:41;35.43;;;21.83;;
19679;SDS011;9989;48.962;9.182;2023-02-15T17:11:15;37.50;;;23.33;;
19679;SDS011;9989;48.962;9.182;2023-02-15T17:14:10;39.20;;;23.90;;
19679;SDS011;9989;48.962;9.182;2023-02-15T17:19:23;41.33;;;24.07;;
19679;SDS011;9989;48.962;9.182;2023-02-15T17:21:57;40.80;;;24.60;;
19679;SDS011;9989;48.962;9.182;2023-02-15T17:24:38;40.53;;;24.27;;
19679;SDS011;9989;48.962;9.182;2023-02-15T17:27:10;38.37;;;23.43;;
19679;SDS011;9989;48.962;9.182;2023-02-15T17:29:40;38.23;;;23.07;;
19679;SDS011;9989;48.962;9.182;2023-02-15T17:32:16;36.97;;;21.93;;
19679;SDS011;9989;48.962;9.182;2023-02-15T17:34:50;37.37;;;22.13;;
19679;SDS011;9989;48.962;9.182;2023-02-15T17:37:24;39.77;;;23.70;;
19679;SDS011;9989;48.962;9.182;2023-02-15T17:39:53;40.80;;;23.47;;
19679;SDS011;9989;48.962;9.182;2023-02-15T17:42:19;40.33;;;23.87;;
19679;SDS011;9989;48.962;9.182;2023-02-15T17:44:45;37.00;;;22.47;;
19679;SDS011;9989;48.962;9.182;2023-02-15T17:47:19;38.60;;;24.43;;
19679;SDS011;9989;48.962;9.182;2023-02-15T17:49:47;37.57;;;22.97;;
19679;SDS011;9989;48.962;9.182;2023-02-15T17:52:14;39.10;;;23.57;;
19679;SDS011;9989;48.962;9.182;2023-02-15T17:54:41;38.97;;;23.43;;
19679;SDS011;9989;48.962;9.182;2023-02-15T17:57:26;39.13;;;22.83;;
19679;SDS011;9989;48.962;9.182;2023-02-15T17:59:52;37.17;;;22.97;;
19679;SDS011;9989;48.962;9.182;2023-02-15T18:02:37;42.40;;;22.93;;
19679;SDS011;9989;48.962;9.182;2023-02-15T18:05:21;35.30;;;21.33;;
19679;SDS011;9989;48.962;9.182;2023-02-15T18:08:13;40.27;;;24.03;;
19679;SDS011;9989;48.962;9.182;2023-02-15T18:10:58;36.90;;;23.10;;
19679;SDS011;9989;48.962;9.182;2023-02-15T18:13:43;39.57;;;23.80;;
19679;SDS011;9989;48.962;9.182;2023-02-15T18:16:13;37.43;;;23.70;;
19679;SDS011;9989;48.962;9.182;2023-02-15T18:18:41;37.53;;;22.30;;
19679;SDS011;9989;48.962;9.182;2023-02-15T18:21:09;39.27;;;24.23;;